NJE76GQ LFMN-LFKF
Flight info
| Callsign | NJE76GQ |
|---|---|
| Flight time | 0h 32m |
| Altitude | 27000 |
| Route | VAREK |
| Aircraft | C750/M-SBDE3FGHRWXY/S |
Departure
| Time | 2026-05-07 08:22 |
|---|---|
| Airport | Nice-Côte d'Azur Airport (LFMN) |
Arrival
| Time | 2026-05-07 08:54 |
|---|---|
| Airport | Figari Sud-Corse Airport (LFKF) |
| Time | Latitude | Longitude | Altitude | Speed | Heading |
|---|---|---|---|---|---|
| 2026-05-07 07:52 | 43.66897 | 7.22336 | 28 ft | 0 kts | 314° |
| 2026-05-07 08:14 | 43.66898 | 7.22335 | 28 ft | 0 kts | 314° |
| 2026-05-07 08:14 | 43.66907 | 7.22321 | 28 ft | 3 kts | 310° |
| 2026-05-07 08:15 | 43.66909 | 7.22294 | 28 ft | 3 kts | 238° |
| 2026-05-07 08:15 | 43.66891 | 7.22264 | 28 ft | 7 kts | 227° |
| 2026-05-07 08:15 | 43.66831 | 7.22179 | 28 ft | 15 kts | 224° |
| 2026-05-07 08:15 | 43.66766 | 7.22072 | 28 ft | 14 kts | 230° |
| 2026-05-07 08:16 | 43.66697 | 7.21976 | 28 ft | 13 kts | 226° |
| 2026-05-07 08:16 | 43.66622 | 7.21938 | 28 ft | 12 kts | 141° |
| 2026-05-07 08:16 | 43.66573 | 7.21982 | 28 ft | 6 kts | 182° |
| 2026-05-07 08:16 | 43.66534 | 7.21947 | 28 ft | 6 kts | 224° |
| 2026-05-07 08:17 | 43.66497 | 7.21896 | 28 ft | 9 kts | 225° |
| 2026-05-07 08:17 | 43.66441 | 7.21817 | 28 ft | 11 kts | 225° |
| 2026-05-07 08:17 | 43.66383 | 7.21738 | 28 ft | 11 kts | 224° |
| 2026-05-07 08:17 | 43.66327 | 7.21663 | 28 ft | 10 kts | 224° |
| 2026-05-07 08:18 | 43.66274 | 7.21592 | 28 ft | 10 kts | 224° |
| 2026-05-07 08:18 | 43.66223 | 7.21520 | 28 ft | 11 kts | 225° |
| 2026-05-07 08:18 | 43.66158 | 7.21428 | 28 ft | 14 kts | 225° |
| 2026-05-07 08:18 | 43.66087 | 7.21331 | 28 ft | 14 kts | 224° |
| 2026-05-07 08:19 | 43.66077 | 7.21319 | 28 ft | 14 kts | 225° |
| 2026-05-07 08:19 | 43.66005 | 7.21220 | 28 ft | 17 kts | 224° |
| 2026-05-07 08:19 | 43.65908 | 7.21086 | 28 ft | 20 kts | 224° |
| 2026-05-07 08:19 | 43.65811 | 7.20951 | 28 ft | 18 kts | 224° |
| 2026-05-07 08:20 | 43.65744 | 7.20882 | 28 ft | 8 kts | 185° |
| 2026-05-07 08:20 | 43.65694 | 7.20893 | 28 ft | 6 kts | 169° |
| 2026-05-07 08:20 | 43.65648 | 7.20903 | 28 ft | 6 kts | 173° |
| 2026-05-07 08:20 | 43.65571 | 7.20917 | 28 ft | 14 kts | 173° |
| 2026-05-07 08:21 | 43.65472 | 7.20936 | 28 ft | 14 kts | 169° |
| 2026-05-07 08:21 | 43.65366 | 7.20960 | 28 ft | 15 kts | 190° |
| 2026-05-07 08:21 | 43.65271 | 7.20894 | 28 ft | 15 kts | 180° |
| 2026-05-07 08:21 | 43.65208 | 7.20968 | 28 ft | 6 kts | 99° |
| 2026-05-07 08:22 | 43.65234 | 7.21017 | 28 ft | 6 kts | 43° |
| 2026-05-07 08:22 | 43.65451 | 7.21316 | 28 ft | 101 kts | 45° |
| 2026-05-07 08:22 | 43.66179 | 7.22312 | 86 ft | 187 kts | 45° |
| 2026-05-07 08:22 | 43.67166 | 7.23771 | 834 ft | 230 kts | 49° |
| 2026-05-07 08:23 | 43.68166 | 7.25422 | 2466 ft | 233 kts | 50° |
| 2026-05-07 08:23 | 43.69179 | 7.27144 | 3876 ft | 240 kts | 50° |
| 2026-05-07 08:23 | 43.70046 | 7.29053 | 5286 ft | 242 kts | 72° |
| 2026-05-07 08:23 | 43.70021 | 7.31266 | 6286 ft | 243 kts | 114° |
| 2026-05-07 08:24 | 43.68941 | 7.32942 | 7447 ft | 243 kts | 153° |
| 2026-05-07 08:24 | 43.67371 | 7.33607 | 8630 ft | 240 kts | 177° |
| 2026-05-07 08:24 | 43.65723 | 7.33703 | 9788 ft | 242 kts | 183° |
| 2026-05-07 08:24 | 43.64072 | 7.33660 | 10895 ft | 243 kts | 185° |
| 2026-05-07 08:25 | 43.62391 | 7.33566 | 11982 ft | 246 kts | 186° |
| 2026-05-07 08:25 | 43.60701 | 7.33463 | 13060 ft | 247 kts | 186° |
| 2026-05-07 08:25 | 43.58998 | 7.33352 | 14077 ft | 250 kts | 186° |
| 2026-05-07 08:25 | 43.57290 | 7.33250 | 15087 ft | 251 kts | 187° |
| 2026-05-07 08:26 | 43.53805 | 7.33024 | 16992 ft | 256 kts | 188° |
| 2026-05-07 08:26 | 43.52031 | 7.32911 | 17944 ft | 257 kts | 188° |
| 2026-05-07 08:26 | 43.50226 | 7.32986 | 18726 ft | 265 kts | 188° |
| 2026-05-07 08:27 | 43.48436 | 7.32487 | 19336 ft | 271 kts | 198° |
| 2026-05-07 08:27 | 43.46514 | 7.32078 | 19876 ft | 289 kts | 192° |
| 2026-05-07 08:27 | 43.44472 | 7.31733 | 20338 ft | 305 kts | 192° |
| 2026-05-07 08:27 | 43.42305 | 7.31383 | 20734 ft | 323 kts | 192° |
| 2026-05-07 08:28 | 43.40026 | 7.31017 | 21244 ft | 336 kts | 192° |
| 2026-05-07 08:28 | 43.37712 | 7.30649 | 22061 ft | 339 kts | 191° |
| 2026-05-07 08:28 | 43.35381 | 7.30279 | 22959 ft | 338 kts | 192° |
| 2026-05-07 08:28 | 43.33040 | 7.29904 | 23760 ft | 340 kts | 192° |
| 2026-05-07 08:29 | 43.30685 | 7.29542 | 24503 ft | 344 kts | 189° |
| 2026-05-07 08:29 | 43.28270 | 7.29975 | 25147 ft | 367 kts | 166° |
| 2026-05-07 08:29 | 43.26067 | 7.31873 | 25778 ft | 393 kts | 144° |
| 2026-05-07 08:29 | 43.24451 | 7.35013 | 26425 ft | 414 kts | 126° |
| 2026-05-07 08:30 | 43.22862 | 7.38200 | 26747 ft | 411 kts | 140° |
| 2026-05-07 08:30 | 43.20981 | 7.41264 | 26801 ft | 433 kts | 135° |
| 2026-05-07 08:30 | 43.19047 | 7.44545 | 26796 ft | 450 kts | 136° |
| 2026-05-07 08:30 | 43.17061 | 7.47924 | 26799 ft | 463 kts | 136° |
| 2026-05-07 08:31 | 43.15029 | 7.51372 | 26785 ft | 474 kts | 135° |
| 2026-05-07 08:31 | 43.12928 | 7.54932 | 26797 ft | 483 kts | 135° |
| 2026-05-07 08:31 | 43.10651 | 7.58313 | 26738 ft | 480 kts | 147° |
| 2026-05-07 08:31 | 43.07809 | 7.60460 | 26793 ft | 468 kts | 165° |
| 2026-05-07 08:32 | 43.04747 | 7.61946 | 26791 ft | 475 kts | 165° |
| 2026-05-07 08:32 | 43.01617 | 7.63523 | 26809 ft | 479 kts | 166° |
| 2026-05-07 08:32 | 42.98473 | 7.65078 | 26801 ft | 485 kts | 166° |
| 2026-05-07 08:32 | 42.95303 | 7.66650 | 26795 ft | 480 kts | 166° |
| 2026-05-07 08:33 | 42.92162 | 7.68211 | 26789 ft | 477 kts | 166° |
| 2026-05-07 08:33 | 42.89074 | 7.69737 | 26795 ft | 475 kts | 166° |
| 2026-05-07 08:33 | 42.85895 | 7.71310 | 26775 ft | 481 kts | 166° |
| 2026-05-07 08:33 | 42.82799 | 7.72842 | 27230 ft | 470 kts | 166° |
| 2026-05-07 08:34 | 42.79899 | 7.74286 | 28497 ft | 429 kts | 167° |
| 2026-05-07 08:34 | 42.77128 | 7.75656 | 28327 ft | 422 kts | 167° |
| 2026-05-07 08:34 | 42.74395 | 7.76993 | 27798 ft | 413 kts | 167° |
| 2026-05-07 08:34 | 42.71677 | 7.78321 | 26847 ft | 417 kts | 167° |
| 2026-05-07 08:35 | 42.68963 | 7.79659 | 26858 ft | 407 kts | 167° |
| 2026-05-07 08:35 | 42.66295 | 7.80967 | 26816 ft | 417 kts | 167° |
| 2026-05-07 08:35 | 42.63542 | 7.82311 | 26832 ft | 429 kts | 166° |
| 2026-05-07 08:35 | 42.60681 | 7.83719 | 26918 ft | 438 kts | 166° |
| 2026-05-07 08:36 | 42.57806 | 7.85125 | 26920 ft | 448 kts | 166° |
| 2026-05-07 08:36 | 42.54855 | 7.86572 | 26928 ft | 457 kts | 166° |
| 2026-05-07 08:36 | 42.51847 | 7.88040 | 26936 ft | 462 kts | 166° |
| 2026-05-07 08:36 | 42.48825 | 7.89520 | 26928 ft | 463 kts | 166° |
| 2026-05-07 08:37 | 42.45771 | 7.91011 | 26928 ft | 464 kts | 166° |
| 2026-05-07 08:37 | 42.42753 | 7.92484 | 26929 ft | 465 kts | 166° |
| 2026-05-07 08:37 | 42.39711 | 7.93963 | 26929 ft | 466 kts | 166° |
| 2026-05-07 08:37 | 42.36675 | 7.95439 | 26934 ft | 466 kts | 166° |
| 2026-05-07 08:38 | 42.33606 | 7.96936 | 26931 ft | 468 kts | 165° |
| 2026-05-07 08:38 | 42.30709 | 7.98993 | 26887 ft | 483 kts | 148° |
| 2026-05-07 08:38 | 42.28355 | 8.02295 | 26942 ft | 491 kts | 135° |
| 2026-05-07 08:38 | 42.26083 | 8.05722 | 26929 ft | 487 kts | 138° |
| 2026-05-07 08:39 | 42.23826 | 8.09117 | 26926 ft | 487 kts | 137° |
| 2026-05-07 08:39 | 42.23788 | 8.09172 | 26925 ft | 487 kts | 137° |
| 2026-05-07 08:39 | 42.22890 | 8.10506 | 26943 ft | 487 kts | 138° |
| 2026-05-07 08:40 | 42.20621 | 8.13865 | 26922 ft | 486 kts | 139° |
| 2026-05-07 08:40 | 42.18341 | 8.17223 | 26940 ft | 475 kts | 139° |
| 2026-05-07 08:40 | 42.16195 | 8.20402 | 26642 ft | 450 kts | 139° |
| 2026-05-07 08:40 | 42.14117 | 8.23451 | 26056 ft | 446 kts | 139° |
| 2026-05-07 08:41 | 42.12028 | 8.26502 | 25454 ft | 442 kts | 138° |
| 2026-05-07 08:41 | 42.09949 | 8.29547 | 24890 ft | 438 kts | 138° |
| 2026-05-07 08:41 | 42.07899 | 8.32555 | 24118 ft | 440 kts | 137° |
| 2026-05-07 08:41 | 42.05822 | 8.35598 | 23309 ft | 442 kts | 137° |
| 2026-05-07 08:42 | 42.03791 | 8.38580 | 22640 ft | 441 kts | 136° |
| 2026-05-07 08:42 | 42.01711 | 8.41621 | 21932 ft | 439 kts | 136° |
| 2026-05-07 08:42 | 41.99664 | 8.44618 | 21303 ft | 436 kts | 136° |
| 2026-05-07 08:42 | 41.97638 | 8.47574 | 20638 ft | 433 kts | 136° |
| 2026-05-07 08:43 | 41.95584 | 8.50565 | 19939 ft | 430 kts | 136° |
| 2026-05-07 08:43 | 41.93591 | 8.53472 | 19171 ft | 422 kts | 136° |
| 2026-05-07 08:43 | 41.91611 | 8.56350 | 18524 ft | 411 kts | 135° |
| 2026-05-07 08:43 | 41.89681 | 8.59156 | 17779 ft | 404 kts | 135° |
| 2026-05-07 08:44 | 41.87811 | 8.61878 | 17127 ft | 396 kts | 135° |
| 2026-05-07 08:44 | 41.85943 | 8.64592 | 16449 ft | 397 kts | 135° |
| 2026-05-07 08:44 | 41.84024 | 8.67369 | 16263 ft | 419 kts | 136° |
| 2026-05-07 08:44 | 41.82003 | 8.70298 | 16024 ft | 424 kts | 136° |
| 2026-05-07 08:45 | 41.80039 | 8.73149 | 15372 ft | 417 kts | 135° |
| 2026-05-07 08:45 | 41.78064 | 8.75859 | 14572 ft | 394 kts | 143° |
| 2026-05-07 08:45 | 41.75733 | 8.77490 | 13769 ft | 368 kts | 167° |
| 2026-05-07 08:45 | 41.73293 | 8.78079 | 13011 ft | 349 kts | 175° |
| 2026-05-07 08:46 | 41.70942 | 8.78522 | 12266 ft | 338 kts | 176° |
| 2026-05-07 08:46 | 41.68648 | 8.78915 | 11501 ft | 329 kts | 175° |
| 2026-05-07 08:46 | 41.66415 | 8.79295 | 10756 ft | 321 kts | 175° |
| 2026-05-07 08:46 | 41.64221 | 8.79674 | 9831 ft | 320 kts | 175° |
| 2026-05-07 08:47 | 41.62054 | 8.80042 | 8922 ft | 319 kts | 175° |
| 2026-05-07 08:47 | 41.59869 | 8.80416 | 8009 ft | 317 kts | 174° |
| 2026-05-07 08:47 | 41.57677 | 8.80786 | 7095 ft | 315 kts | 174° |
| 2026-05-07 08:47 | 41.55533 | 8.81158 | 6162 ft | 312 kts | 173° |
| 2026-05-07 08:48 | 41.53425 | 8.81518 | 5507 ft | 301 kts | 173° |
| 2026-05-07 08:48 | 41.51394 | 8.81871 | 5010 ft | 288 kts | 173° |
| 2026-05-07 08:48 | 41.49501 | 8.82513 | 4502 ft | 283 kts | 153° |
| 2026-05-07 08:48 | 41.47906 | 8.83850 | 4439 ft | 263 kts | 149° |
| 2026-05-07 08:49 | 41.46370 | 8.85084 | 4356 ft | 248 kts | 148° |
| 2026-05-07 08:49 | 41.44960 | 8.86245 | 4352 ft | 228 kts | 148° |
| 2026-05-07 08:49 | 41.43644 | 8.87324 | 4339 ft | 217 kts | 148° |
| 2026-05-07 08:49 | 41.42367 | 8.88370 | 4066 ft | 223 kts | 148° |
| 2026-05-07 08:50 | 41.41085 | 8.89419 | 4063 ft | 212 kts | 148° |
| 2026-05-07 08:50 | 41.39837 | 8.90442 | 4056 ft | 210 kts | 146° |
| 2026-05-07 08:50 | 41.38918 | 8.91884 | 4055 ft | 208 kts | 106° |
| 2026-05-07 08:50 | 41.38942 | 8.93813 | 3696 ft | 216 kts | 66° |
| 2026-05-07 08:51 | 41.39685 | 8.95526 | 3309 ft | 213 kts | 59° |
| 2026-05-07 08:51 | 41.40382 | 8.97241 | 2902 ft | 210 kts | 61° |
| 2026-05-07 08:51 | 41.41028 | 8.98869 | 2492 ft | 192 kts | 62° |
| 2026-05-07 08:51 | 41.41590 | 9.00398 | 2140 ft | 182 kts | 64° |
| 2026-05-07 08:52 | 41.42074 | 9.01984 | 1541 ft | 192 kts | 69° |
| 2026-05-07 08:52 | 41.42639 | 9.03525 | 1283 ft | 175 kts | 45° |
| 2026-05-07 08:52 | 41.43642 | 9.04198 | 1181 ft | 155 kts | 14° |
| 2026-05-07 08:52 | 41.44675 | 9.04536 | 1037 ft | 152 kts | 17° |
| 2026-05-07 08:53 | 41.45686 | 9.04994 | 890 ft | 155 kts | 25° |
| 2026-05-07 08:53 | 41.46616 | 9.05614 | 808 ft | 144 kts | 30° |
| 2026-05-07 08:53 | 41.47463 | 9.06302 | 632 ft | 139 kts | 36° |
| 2026-05-07 08:53 | 41.48240 | 9.07045 | 434 ft | 136 kts | 39° |
| 2026-05-07 08:54 | 41.48955 | 9.07862 | 212 ft | 134 kts | 47° |
| 2026-05-07 08:54 | 41.49584 | 9.08763 | 63 ft | 129 kts | 50° |
| 2026-05-07 08:54 | 41.50135 | 9.09564 | 67 ft | 93 kts | 47° |
| 2026-05-07 08:54 | 41.50369 | 9.09904 | 72 ft | 6 kts | 45° |
| 2026-05-07 08:55 | 41.50364 | 9.09957 | 72 ft | 7 kts | 146° |
| 2026-05-07 08:55 | 41.50321 | 9.10008 | 72 ft | 10 kts | 135° |
| 2026-05-07 08:55 | 41.50281 | 9.10057 | 72 ft | 6 kts | 138° |
| 2026-05-07 08:55 | 41.50245 | 9.10080 | 72 ft | 6 kts | 198° |
| 2026-05-07 08:56 | 41.50217 | 9.10050 | 71 ft | 4 kts | 213° |
| 2026-05-07 08:56 | 41.50197 | 9.10059 | 71 ft | 2 kts | 151° |
| 2026-05-07 08:56 | 41.50182 | 9.10054 | 71 ft | 1 kts | 223° |
| 2026-05-07 08:56 | 41.50178 | 9.10049 | 71 ft | 0 kts | 223° |